createdAt,value
2022-07-25T00:03:44.324Z,56.26
2022-07-25T00:09:06.541Z,56.71
2022-07-25T00:14:28.295Z,56.40
2022-07-25T00:19:50.011Z,56.57
2022-07-25T00:25:11.886Z,56.56
2022-07-25T00:30:33.647Z,56.39
2022-07-25T00:35:55.349Z,56.55
2022-07-25T00:41:17.070Z,56.50
2022-07-25T00:46:39.325Z,56.93
2022-07-25T00:52:01.542Z,57.70
2022-07-25T00:57:23.610Z,57.53
2022-07-25T01:02:45.916Z,57.20
2022-07-25T01:08:09.038Z,57.86
2022-07-25T01:13:34.281Z,57.80
2022-07-25T01:18:55.994Z,57.79
2022-07-25T01:24:17.760Z,57.56
2022-07-25T01:29:39.511Z,57.83
2022-07-25T01:35:01.641Z,58.02
2022-07-25T01:40:23.553Z,58.54
2022-07-25T01:45:45.451Z,57.75
2022-07-25T01:51:08.150Z,57.51
2022-07-25T01:56:32.834Z,58.50
2022-07-25T02:01:55.151Z,59.11
2022-07-25T02:07:16.978Z,58.66
2022-07-25T02:12:38.783Z,58.69
2022-07-25T02:18:00.778Z,59.07
2022-07-25T02:23:22.572Z,58.92
2022-07-25T02:28:44.465Z,59.25
2022-07-25T02:34:06.438Z,59.55
2022-07-25T02:39:28.504Z,59.42
2022-07-25T02:44:50.246Z,59.52
2022-07-25T02:50:14.713Z,60.35
2022-07-25T02:55:36.798Z,60.53
2022-07-25T03:00:58.661Z,61.20
2022-07-25T03:06:20.455Z,60.92
2022-07-25T03:11:42.307Z,61.06
2022-07-25T03:17:04.217Z,61.48
2022-07-25T03:22:26.069Z,60.68
2022-07-25T03:27:47.804Z,59.92
2022-07-25T03:33:10.140Z,59.42
2022-07-25T03:38:31.972Z,59.07
2022-07-25T03:43:53.782Z,58.63
2022-07-25T03:49:15.979Z,59.19
2022-07-25T03:54:37.721Z,58.68
2022-07-25T03:59:59.541Z,59.24
2022-07-25T04:05:21.355Z,60.24
2022-07-25T04:10:43.112Z,60.12
2022-07-25T04:16:05.418Z,59.51
2022-07-25T04:21:27.182Z,59.68
2022-07-25T04:26:49.012Z,60.34
2022-07-25T04:32:11.258Z,60.63
2022-07-25T04:37:33.213Z,60.65
2022-07-25T04:42:55.068Z,59.88
2022-07-25T04:48:17.008Z,60.18
2022-07-25T04:53:38.986Z,60.68
2022-07-25T04:59:06.707Z,60.29
2022-07-25T05:04:28.747Z,59.85
2022-07-25T05:09:50.519Z,60.05
2022-07-25T05:15:12.644Z,59.89
2022-07-25T05:20:34.356Z,60.25
2022-07-25T05:25:56.120Z,60.33
2022-07-25T05:31:19.047Z,60.04
2022-07-25T05:36:45.472Z,60.09
2022-07-25T05:42:08.871Z,59.99
2022-07-25T05:47:30.750Z,59.16
2022-07-25T05:52:52.522Z,59.68
2022-07-25T05:58:14.470Z,59.75
2022-07-25T06:03:36.248Z,59.27
2022-07-25T06:08:58.464Z,59.43
2022-07-25T06:14:21.564Z,59.88
2022-07-25T06:19:44.675Z,59.50
2022-07-25T06:25:07.039Z,59.39
2022-07-25T06:30:28.908Z,58.92
2022-07-25T06:35:50.772Z,58.53
2022-07-25T06:41:16.019Z,59.15
2022-07-25T06:46:37.868Z,58.71
2022-07-25T06:51:59.782Z,58.92
2022-07-25T06:57:21.586Z,57.50
2022-07-25T07:03:01.566Z,57.16
2022-07-25T07:08:23.492Z,56.92
2022-07-25T07:13:45.433Z,56.46
2022-07-25T07:19:07.642Z,55.40
2022-07-25T07:24:29.694Z,54.62
2022-07-25T07:29:51.471Z,54.19
2022-07-25T07:35:16.407Z,53.14
2022-07-25T07:40:38.403Z,52.34
2022-07-25T07:46:01.076Z,52.11
2022-07-25T07:51:23.197Z,51.04
2022-07-25T07:56:45.737Z,49.16
2022-07-25T08:02:07.614Z,47.66
2022-07-25T08:07:29.473Z,48.34
2022-07-25T08:12:51.626Z,47.71
2022-07-25T08:18:17.693Z,49.12
2022-07-25T08:23:39.997Z,48.57
2022-07-25T08:29:18.223Z,48.45
2022-07-25T08:34:40.785Z,48.00
2022-07-25T08:40:03.527Z,46.95
2022-07-25T08:45:27.929Z,45.75
2022-07-25T08:50:51.250Z,46.67
2022-07-25T08:56:18.877Z,45.71
2022-07-25T09:01:42.665Z,46.29
2022-07-25T09:07:08.053Z,43.29
2022-07-25T09:12:30.125Z,42.91
2022-07-25T09:17:52.500Z,43.18
2022-07-25T09:23:38.520Z,42.48
2022-07-25T09:29:01.094Z,41.36
2022-07-25T09:34:50.145Z,41.50
2022-07-25T09:40:15.373Z,40.91
2022-07-25T09:45:37.114Z,39.80
2022-07-25T09:50:59.953Z,39.70
2022-07-25T09:56:21.755Z,41.05
2022-07-25T10:01:55.122Z,40.42
2022-07-25T10:07:20.479Z,41.08
2022-07-25T10:12:42.492Z,40.84
2022-07-25T10:18:06.766Z,40.08
2022-07-25T10:23:28.600Z,40.13
2022-07-25T10:28:51.631Z,39.09
2022-07-25T10:34:16.571Z,38.36
2022-07-25T10:39:40.647Z,38.28
2022-07-25T10:45:05.401Z,37.89
2022-07-25T10:50:53.664Z,39.40
2022-07-25T10:56:23.201Z,37.72
2022-07-25T11:01:50.784Z,37.72
2022-07-25T11:07:15.515Z,36.80
2022-07-25T11:12:37.405Z,36.21
2022-07-25T11:17:59.171Z,35.59
2022-07-25T11:23:23.820Z,35.77
2022-07-25T11:28:47.992Z,35.66
2022-07-25T11:34:09.927Z,35.02
2022-07-25T11:39:34.719Z,34.47
2022-07-25T11:44:56.475Z,34.10
2022-07-25T11:50:28.664Z,34.84
2022-07-25T11:55:50.414Z,33.58
2022-07-25T12:01:14.781Z,33.69
2022-07-25T12:06:36.513Z,33.77
2022-07-25T12:12:03.927Z,33.23
2022-07-25T12:17:25.984Z,33.87
2022-07-25T12:22:49.559Z,33.90
2022-07-25T12:28:12.152Z,33.92
2022-07-25T12:33:33.957Z,34.36
2022-07-25T12:38:55.787Z,32.66
2022-07-25T12:44:17.544Z,33.77
2022-07-25T12:49:39.361Z,33.48
2022-07-25T12:55:01.249Z,34.53
2022-07-25T13:00:23.945Z,34.90
2022-07-25T13:05:45.860Z,35.29
2022-07-25T13:11:07.670Z,35.15
2022-07-25T13:16:29.555Z,34.41
2022-07-25T13:21:51.459Z,34.47
2022-07-25T13:27:13.262Z,34.02
2022-07-25T13:32:35.164Z,34.73
2022-07-25T13:37:56.914Z,35.74
2022-07-25T13:43:21.472Z,34.04
2022-07-25T13:48:43.403Z,32.87
2022-07-25T13:54:05.341Z,32.10
2022-07-25T13:59:27.094Z,31.98
2022-07-25T14:04:48.851Z,32.12
2022-07-25T14:10:10.770Z,32.00
2022-07-25T14:15:32.742Z,32.39
2022-07-25T14:20:55.229Z,32.55
2022-07-25T14:26:17.235Z,33.72
2022-07-25T14:31:40.215Z,34.75
2022-07-25T14:37:02.663Z,35.45
2022-07-25T14:42:24.458Z,35.08
2022-07-25T14:47:46.377Z,34.47
2022-07-25T14:53:08.215Z,34.92
2022-07-25T14:58:30.152Z,35.48
2022-07-25T15:03:52.834Z,34.73
2022-07-25T15:09:15.057Z,35.13
2022-07-25T15:14:36.846Z,35.36
2022-07-25T15:19:58.834Z,35.10
2022-07-25T15:25:59.898Z,35.05
2022-07-25T15:31:02.708Z,35.44
2022-07-25T15:36:29.126Z,37.39
2022-07-25T15:41:51.508Z,39.10
2022-07-25T15:47:13.434Z,39.26
2022-07-25T15:52:35.498Z,39.86
2022-07-25T15:57:57.836Z,40.26
2022-07-25T16:03:20.969Z,40.60
2022-07-25T16:08:42.793Z,40.72
2022-07-25T16:14:05.391Z,40.76
2022-07-25T16:19:27.210Z,41.41
2022-07-25T16:24:49.223Z,40.81
2022-07-25T16:30:11.538Z,38.96
2022-07-25T16:35:33.384Z,37.62
2022-07-25T16:40:55.382Z,37.86
2022-07-25T16:46:17.256Z,37.52
2022-07-25T16:51:39.344Z,37.81
2022-07-25T16:57:01.181Z,37.67
2022-07-25T17:02:28.902Z,37.85
2022-07-25T17:07:58.687Z,37.33
2022-07-25T17:13:21.729Z,37.58
2022-07-25T17:18:43.639Z,37.73
2022-07-25T17:24:06.307Z,38.02
2022-07-25T17:29:28.150Z,37.83
2022-07-25T17:34:49.959Z,38.74
2022-07-25T17:40:12.141Z,39.11
2022-07-25T17:45:34.380Z,39.56
2022-07-25T17:50:56.168Z,39.89
2022-07-25T17:56:17.982Z,40.26
2022-07-25T18:01:40.020Z,39.73
2022-07-25T18:07:02.016Z,39.70
2022-07-25T18:12:27.503Z,39.55
2022-07-25T18:17:52.796Z,39.86
2022-07-25T18:23:14.662Z,40.47
2022-07-25T18:28:36.485Z,40.32
2022-07-25T18:33:58.384Z,40.71
2022-07-25T18:39:20.240Z,41.01
2022-07-25T18:44:42.053Z,40.96
2022-07-25T18:50:05.527Z,40.75
2022-07-25T18:55:27.415Z,40.41
2022-07-25T19:00:49.233Z,39.68
2022-07-25T19:06:11.451Z,39.99
2022-07-25T19:11:37.640Z,39.63
2022-07-25T19:17:04.585Z,38.87
2022-07-25T19:22:26.889Z,38.85
2022-07-25T19:27:48.724Z,39.36
2022-07-25T19:33:10.565Z,39.17
2022-07-25T19:38:32.988Z,39.25
2022-07-25T19:43:54.963Z,39.06
2022-07-25T19:49:17.227Z,39.16
2022-07-25T19:54:39.254Z,39.67
2022-07-25T20:00:01.357Z,40.13
2022-07-25T20:05:23.242Z,40.63
2022-07-25T20:10:45.048Z,40.86
2022-07-25T20:16:07.034Z,41.27
2022-07-25T20:21:29.469Z,41.56
2022-07-25T20:26:51.316Z,41.52
2022-07-25T20:32:13.147Z,41.80
2022-07-25T20:37:35.050Z,41.98
2022-07-25T20:42:57.916Z,41.98
2022-07-25T20:48:19.744Z,42.36
2022-07-25T20:53:41.951Z,42.53
2022-07-25T20:59:04.155Z,42.33
2022-07-25T21:04:26.147Z,42.41
2022-07-25T21:09:47.920Z,42.51
2022-07-25T21:15:10.162Z,42.80
2022-07-25T21:20:31.937Z,42.28
2022-07-25T21:25:53.669Z,42.75
2022-07-25T21:31:17.607Z,42.71
2022-07-25T21:36:39.794Z,42.67
2022-07-25T21:42:01.814Z,42.21
2022-07-25T21:47:24.630Z,42.31
2022-07-25T21:52:46.542Z,42.63
2022-07-25T21:58:08.304Z,42.52
2022-07-25T22:03:30.131Z,42.11
2022-07-25T22:08:51.935Z,41.84
2022-07-25T22:14:14.271Z,41.90
2022-07-25T22:19:36.069Z,41.89
2022-07-25T22:24:57.917Z,42.27
2022-07-25T22:30:19.802Z,42.27
2022-07-25T22:35:41.689Z,42.57
2022-07-25T22:41:03.517Z,42.76
2022-07-25T22:46:25.556Z,43.03
2022-07-25T22:51:47.416Z,43.35
2022-07-25T22:57:09.182Z,43.68
2022-07-25T23:02:31.019Z,44.03
2022-07-25T23:07:52.818Z,44.29
2022-07-25T23:13:14.585Z,44.31
2022-07-25T23:18:36.379Z,44.45
2022-07-25T23:23:59.907Z,44.41
2022-07-25T23:29:21.665Z,44.83
2022-07-25T23:34:44.162Z,44.88
2022-07-25T23:40:06.654Z,45.41
2022-07-25T23:45:28.700Z,46.00
2022-07-25T23:50:50.478Z,45.94
2022-07-25T23:56:13.476Z,46.27
